Time;durP1;ratioP1;P1;durP2;ratioP2;P2;SDS_P1;SDS_P2;PMS_P1;PMS_P2;Temp;Humidity;BMP_temperature;BMP_pressure;BME280_temperature;BME280_humidity;BME280_pressure;Samples;Min_cycle;Max_cycle;Signal;HPM_P1;HPM_P2
2024/02/12 00:02:23;;;;;;;23.13;10.23;;;;;;;;;;7356110;19;20958;-45
2024/02/12 00:04:54;;;;;;;28.93;11.57;;;;;;;;;;7331712;19;20414;-47
2024/02/12 00:07:26;;;;;;;24.57;10.60;;;;;;;;;;7357087;19;20414;-46
2024/02/12 00:09:56;;;;;;;24.10;10.47;;;;;;;;;;7331899;19;20411;-48
2024/02/12 00:12:25;;;;;;;20.40;10.67;;;;;;;;;;7355902;19;20430;-45
2024/02/12 00:14:59;;;;;;;21.37;9.77;;;;;;;;;;7332120;19;21102;-43
2024/02/12 00:17:29;;;;;;;46.10;11.93;;;;;;;;;;7353970;19;20418;-48
2024/02/12 00:20:00;;;;;;;24.90;11.33;;;;;;;;;;7331979;19;20411;-42
2024/02/12 00:22:29;;;;;;;25.30;10.23;;;;;;;;;;7356969;19;20417;-45
2024/02/12 00:24:59;;;;;;;26.17;9.33;;;;;;;;;;7333602;19;20411;-46
2024/02/12 00:27:29;;;;;;;28.40;11.23;;;;;;;;;;7355599;19;20497;-51
2024/02/12 00:30:02;;;;;;;22.50;10.27;;;;;;;;;;7334556;19;20794;-46
2024/02/12 00:32:32;;;;;;;26.63;10.23;;;;;;;;;;7356405;19;20838;-46
2024/02/12 00:35:03;;;;;;;31.50;11.47;;;;;;;;;;7331995;19;20420;-43
2024/02/12 00:37:34;;;;;;;28.07;10.83;;;;;;;;;;7352991;19;20407;-48
2024/02/12 00:40:07;;;;;;;30.90;10.03;;;;;;;;;;7326303;19;20395;-42
2024/02/12 00:42:36;;;;;;;26.33;10.40;;;;;;;;;;7348545;19;20470;-44
2024/02/12 00:45:09;;;;;;;26.50;11.13;;;;;;;;;;7326204;19;20764;-46
2024/02/12 00:47:39;;;;;;;24.13;9.90;;;;;;;;;;7348541;19;20402;-47
2024/02/12 00:50:10;;;;;;;23.90;11.60;;;;;;;;;;7326648;19;20419;-44
2024/02/12 00:52:41;;;;;;;28.80;10.67;;;;;;;;;;7347268;19;20399;-49
2024/02/12 00:55:13;;;;;;;28.57;10.80;;;;;;;;;;7325802;19;20423;-43
2024/02/12 00:57:43;;;;;;;24.07;11.00;;;;;;;;;;7348002;19;20463;-46
2024/02/12 01:00:16;;;;;;;31.03;12.30;;;;;;;;;;7327291;19;20395;-48
2024/02/12 01:02:46;;;;;;;30.93;12.20;;;;;;;;;;7347179;19;20396;-46
2024/02/12 01:05:17;;;;;;;33.20;11.20;;;;;;;;;;7325602;19;20474;-46
2024/02/12 01:07:47;;;;;;;29.13;13.30;;;;;;;;;;7338593;19;20404;-45
2024/02/12 01:10:17;;;;;;;31.60;13.90;;;;;;;;;;7347918;19;20391;-46
2024/02/12 01:12:47;;;;;;;28.13;11.80;;;;;;;;;;7345987;19;20407;-45
2024/02/12 01:15:19;;;;;;;28.47;11.83;;;;;;;;;;7325666;19;20395;-48
2024/02/12 01:17:49;;;;;;;30.43;13.67;;;;;;;;;;7325203;19;20429;-41
2024/02/12 01:20:25;;;;;;;39.73;12.93;;;;;;;;;;7348311;19;20815;-42
2024/02/12 01:22:56;;;;;;;32.00;13.03;;;;;;;;;;7324187;19;20416;-44
2024/02/12 01:25:25;;;;;;;37.87;12.43;;;;;;;;;;7347219;19;20483;-47
2024/02/12 01:27:55;;;;;;;36.13;13.77;;;;;;;;;;7324938;19;20591;-45
2024/02/12 01:30:28;;;;;;;32.13;13.07;;;;;;;;;;7348593;19;20955;-44
2024/02/12 01:32:58;;;;;;;36.50;13.00;;;;;;;;;;7323491;19;20399;-47
2024/02/12 01:35:27;;;;;;;33.00;13.20;;;;;;;;;;7346316;19;20403;-44
2024/02/12 01:37:57;;;;;;;36.30;14.47;;;;;;;;;;7324182;19;20416;-47
2024/02/12 01:40:27;;;;;;;35.87;12.97;;;;;;;;;;7346921;19;20407;-42
2024/02/12 01:42:56;;;;;;;36.53;13.00;;;;;;;;;;7324123;19;20403;-42
2024/02/12 01:45:28;;;;;;;29.70;12.83;;;;;;;;;;7346439;19;20403;-47
2024/02/12 01:48:02;;;;;;;34.33;13.13;;;;;;;;;;7323794;19;20411;-44
2024/02/12 01:50:33;;;;;;;39.30;13.83;;;;;;;;;;7344869;19;20792;-44
2024/02/12 01:53:03;;;;;;;34.90;13.00;;;;;;;;;;7321009;19;20957;-48
2024/02/12 01:55:34;;;;;;;34.37;13.70;;;;;;;;;;7344561;19;20403;-45
2024/02/12 01:58:04;;;;;;;30.97;12.93;;;;;;;;;;7324486;19;20431;-42
2024/02/12 02:00:36;;;;;;;32.83;12.70;;;;;;;;;;7346397;19;20479;-48
2024/02/12 02:03:05;;;;;;;34.13;13.10;;;;;;;;;;7323901;19;20425;-44
2024/02/12 02:05:35;;;;;;;26.00;11.03;;;;;;;;;;7345741;19;20989;-45
2024/02/12 02:08:05;;;;;;;45.60;13.10;;;;;;;;;;7324064;19;20491;-43
2024/02/12 02:10:35;;;;;;;32.30;13.37;;;;;;;;;;7346330;19;20762;-44
2024/02/12 02:13:06;;;;;;;27.77;13.13;;;;;;;;;;7323342;19;20444;-44
2024/02/12 02:15:39;;;;;;;31.83;13.20;;;;;;;;;;7344020;19;20785;-47
2024/02/12 02:18:08;;;;;;;30.17;12.70;;;;;;;;;;7323647;19;20434;-49
2024/02/12 02:20:38;;;;;;;25.80;12.13;;;;;;;;;;7345812;19;20407;-44
2024/02/12 02:23:07;;;;;;;32.93;12.43;;;;;;;;;;7322652;19;20381;-45
2024/02/12 02:25:40;;;;;;;28.93;12.20;;;;;;;;;;7344513;19;20411;-48
2024/02/12 02:28:09;;;;;;;32.50;12.33;;;;;;;;;;7324151;19;20385;-49
2024/02/12 02:30:39;;;;;;;30.20;12.03;;;;;;;;;;7345606;19;20479;-45
2024/02/12 02:33:09;;;;;;;30.97;13.37;;;;;;;;;;7323031;19;20474;-47
2024/02/12 02:35:38;;;;;;;31.13;12.50;;;;;;;;;;7344569;19;20409;-46
2024/02/12 02:38:08;;;;;;;33.73;12.60;;;;;;;;;;7322735;19;20735;-50
2024/02/12 02:40:40;;;;;;;31.93;13.10;;;;;;;;;;7344929;19;20470;-47
2024/02/12 02:43:09;;;;;;;39.43;13.10;;;;;;;;;;7322729;19;20396;-46
2024/02/12 02:45:38;;;;;;;34.70;12.93;;;;;;;;;;7339618;19;20399;-46
2024/02/12 02:48:08;;;;;;;29.80;13.77;;;;;;;;;;7323489;19;20376;-48
2024/02/12 02:50:38;;;;;;;30.40;13.57;;;;;;;;;;7346399;19;20512;-46
2024/02/12 02:53:08;;;;;;;28.03;12.90;;;;;;;;;;7323379;19;21471;-45
2024/02/12 02:55:41;;;;;;;32.80;11.90;;;;;;;;;;7345171;19;20394;-46
2024/02/12 02:58:10;;;;;;;30.03;12.43;;;;;;;;;;7323375;19;20437;-44
2024/02/12 03:00:39;;;;;;;39.83;14.17;;;;;;;;;;7346510;19;20424;-48
2024/02/12 03:03:09;;;;;;;28.07;13.00;;;;;;;;;;7322082;19;20399;-47
2024/02/12 03:05:39;;;;;;;42.07;14.07;;;;;;;;;;7345832;19;20461;-43
2024/02/12 03:08:09;;;;;;;35.07;13.37;;;;;;;;;;7323540;19;20380;-47
2024/02/12 03:10:42;;;;;;;38.67;12.60;;;;;;;;;;7345700;19;20395;-45
2024/02/12 03:13:12;;;;;;;38.30;12.87;;;;;;;;;;7323405;19;20398;-45
2024/02/12 03:15:42;;;;;;;31.47;13.83;;;;;;;;;;7345079;19;20431;-46
2024/02/12 03:18:12;;;;;;;35.83;12.67;;;;;;;;;;7324287;19;20544;-49
2024/02/12 03:20:41;;;;;;;44.50;12.90;;;;;;;;;;7345735;19;20435;-44
2024/02/12 03:23:11;;;;;;;29.73;12.20;;;;;;;;;;7322959;19;20402;-46
2024/02/12 03:25:43;;;;;;;34.73;13.87;;;;;;;;;;7344992;19;20419;-52
2024/02/12 03:28:13;;;;;;;37.40;13.80;;;;;;;;;;7323955;19;20419;-45
2024/02/12 03:30:42;;;;;;;34.97;13.63;;;;;;;;;;7344906;19;20428;-49
2024/02/12 03:33:11;;;;;;;32.60;13.77;;;;;;;;;;7323316;19;20421;-42
2024/02/12 03:35:41;;;;;;;28.20;12.93;;;;;;;;;;7343903;19;20407;-46
2024/02/12 03:38:10;;;;;;;39.97;14.23;;;;;;;;;;7322362;19;20392;-42
2024/02/12 03:40:40;;;;;;;29.30;12.20;;;;;;;;;;7345411;19;20449;-49
2024/02/12 03:43:15;;;;;;;38.73;14.33;;;;;;;;;;7322441;19;20426;-48
2024/02/12 03:45:46;;;;;;;38.70;14.90;;;;;;;;;;7344655;19;20436;-50
2024/02/12 03:59:50;;;;;;;30.70;12.90;;;;;;;;;;7323381;19;20866;-43
2024/02/12 04:02:04;;;;;;;33.30;13.07;;;;;;;;;;7321339;19;20492;-49
2024/02/12 04:04:34;;;;;;;33.30;11.97;;;;;;;;;;7343838;19;20407;-44
2024/02/12 04:07:04;;;;;;;43.30;15.10;;;;;;;;;;7321188;19;20423;-41
2024/02/12 04:09:38;;;;;;;34.50;12.70;;;;;;;;;;7344862;19;20448;-49
2024/02/12 04:12:11;;;;;;;35.73;13.63;;;;;;;;;;7321592;19;20379;-49
2024/02/12 04:14:44;;;;;;;33.40;12.23;;;;;;;;;;7346485;19;20406;-46
2024/02/12 04:17:14;;;;;;;60.73;14.93;;;;;;;;;;7328444;19;21033;-50
2024/02/12 04:19:44;;;;;;;33.57;11.97;;;;;;;;;;7351531;19;20423;-48
2024/02/12 04:22:14;;;;;;;39.87;14.10;;;;;;;;;;7330344;19;20394;-48
2024/02/12 04:24:44;;;;;;;33.70;13.80;;;;;;;;;;7350636;19;20426;-44
2024/02/12 04:27:14;;;;;;;37.77;13.03;;;;;;;;;;7328957;19;20399;-45
2024/02/12 04:29:46;;;;;;;38.53;13.60;;;;;;;;;;7350671;19;20514;-48
2024/02/12 04:32:16;;;;;;;62.17;13.53;;;;;;;;;;7329383;19;20405;-44
2024/02/12 04:34:45;;;;;;;41.67;12.53;;;;;;;;;;7350516;19;20450;-45
2024/02/12 04:37:14;;;;;;;30.67;11.97;;;;;;;;;;7327657;19;20476;-45
2024/02/12 04:39:44;;;;;;;38.17;11.80;;;;;;;;;;7350466;19;20811;-45
2024/02/12 04:42:13;;;;;;;33.50;10.90;;;;;;;;;;7328727;19;20995;-46
2024/02/12 04:44:43;;;;;;;42.20;12.23;;;;;;;;;;7350813;19;20455;-42
2024/02/12 04:47:15;;;;;;;39.67;11.43;;;;;;;;;;7328763;19;20461;-48
2024/02/12 04:49:44;;;;;;;39.73;12.27;;;;;;;;;;7351186;19;20448;-45
2024/02/12 04:52:14;;;;;;;34.60;11.57;;;;;;;;;;7328535;19;20782;-47
2024/02/12 04:54:44;;;;;;;37.53;13.30;;;;;;;;;;7350306;19;20516;-43
2024/02/12 04:57:14;;;;;;;42.13;12.17;;;;;;;;;;7328751;19;20407;-46
2024/02/12 04:59:43;;;;;;;60.37;14.73;;;;;;;;;;7350757;19;20906;-42
2024/02/12 05:02:16;;;;;;;32.37;11.57;;;;;;;;;;7327746;19;20774;-42
2024/02/12 05:04:45;;;;;;;37.83;11.90;;;;;;;;;;7348720;19;20426;-48
2024/02/12 05:07:16;;;;;;;43.77;11.60;;;;;;;;;;7327894;19;20488;-43
2024/02/12 05:09:46;;;;;;;159.60;18.70;;;;;;;;;;7349991;19;20426;-42
2024/02/12 05:12:15;;;;;;;40.83;13.63;;;;;;;;;;7328288;19;20395;-47
2024/02/12 05:14:46;;;;;;;38.77;12.87;;;;;;;;;;7348177;19;20449;-44
2024/02/12 05:17:23;;;;;;;42.43;13.37;;;;;;;;;;7327147;19;20399;-44
2024/02/12 05:22:38;;;;;;;45.90;14.10;;;;;;;;;;7348767;19;20480;-43
2024/02/12 05:25:07;;;;;;;45.23;13.33;;;;;;;;;;7325000;19;20472;-48
2024/02/12 05:27:36;;;;;;;53.10;15.77;;;;;;;;;;7349415;19;20407;-43
2024/02/12 05:30:06;;;;;;;51.23;14.80;;;;;;;;;;7325861;19;20506;-42
2024/02/12 05:32:39;;;;;;;55.17;15.33;;;;;;;;;;7346973;19;20406;-43
2024/02/12 05:35:09;;;;;;;40.53;14.70;;;;;;;;;;7323777;19;20413;-43
2024/02/12 05:37:39;;;;;;;51.83;15.57;;;;;;;;;;7347233;19;20411;-47
2024/02/12 05:40:09;;;;;;;55.87;17.70;;;;;;;;;;7326177;19;20946;-48
2024/02/12 05:42:39;;;;;;;49.57;15.33;;;;;;;;;;7348933;19;20777;-45
2024/02/12 05:45:10;;;;;;;56.07;17.10;;;;;;;;;;7325508;19;20444;-42
2024/02/12 05:47:42;;;;;;;71.23;18.23;;;;;;;;;;7345969;19;20450;-44
2024/02/12 05:50:12;;;;;;;65.27;17.60;;;;;;;;;;7326964;19;20808;-44
2024/02/12 05:52:42;;;;;;;54.07;17.50;;;;;;;;;;7348189;19;20420;-42
2024/02/12 05:55:11;;;;;;;60.57;18.90;;;;;;;;;;7325333;19;20745;-48
2024/02/12 05:57:40;;;;;;;60.40;19.70;;;;;;;;;;7347401;19;20998;-43
2024/02/12 06:00:10;;;;;;;79.90;20.87;;;;;;;;;;7325009;19;20407;-47
2024/02/12 06:02:43;;;;;;;65.63;20.80;;;;;;;;;;7347603;19;20403;-45
2024/02/12 06:05:15;;;;;;;67.30;19.53;;;;;;;;;;7326631;19;20391;-42
2024/02/12 06:07:44;;;;;;;71.70;19.60;;;;;;;;;;7347370;19;20431;-47
2024/02/12 06:10:14;;;;;;;71.83;19.27;;;;;;;;;;7327337;19;20416;-49
2024/02/12 06:12:43;;;;;;;67.43;20.37;;;;;;;;;;7347823;19;20419;-45
2024/02/12 06:15:13;;;;;;;69.73;21.20;;;;;;;;;;7324951;19;20735;-46
2024/02/12 06:17:45;;;;;;;64.40;20.27;;;;;;;;;;7347841;19;20426;-48
2024/02/12 06:20:15;;;;;;;85.90;22.97;;;;;;;;;;7325985;19;20423;-45
2024/02/12 06:22:44;;;;;;;56.10;20.23;;;;;;;;;;7346988;19;20427;-50
2024/02/12 06:25:18;;;;;;;67.60;21.00;;;;;;;;;;7325518;19;20399;-46
2024/02/12 06:27:48;;;;;;;55.93;20.23;;;;;;;;;;7338364;19;20823;-44
2024/02/12 06:30:17;;;;;;;74.17;22.63;;;;;;;;;;7347574;19;20395;-44
2024/02/12 06:32:50;;;;;;;65.07;19.97;;;;;;;;;;7347284;19;20420;-42
2024/02/12 06:35:20;;;;;;;65.30;22.87;;;;;;;;;;7325326;19;20754;-44
2024/02/12 06:37:49;;;;;;;63.13;20.73;;;;;;;;;;7321684;19;20427;-45
2024/02/12 06:40:20;;;;;;;53.17;20.30;;;;;;;;;;7347252;19;20407;-43
2024/02/12 06:42:50;;;;;;;62.07;22.47;;;;;;;;;;7323881;19;20434;-46
2024/02/12 06:45:19;;;;;;;62.70;21.20;;;;;;;;;;7344948;19;21002;-45
2024/02/12 06:47:51;;;;;;;62.27;21.57;;;;;;;;;;7324517;19;20428;-43
2024/02/12 06:50:22;;;;;;;58.43;21.20;;;;;;;;;;7346597;19;20395;-46
2024/02/12 06:52:51;;;;;;;59.03;19.40;;;;;;;;;;7322232;19;20471;-44
2024/02/12 06:55:21;;;;;;;66.30;21.00;;;;;;;;;;7344859;19;20476;-46
2024/02/12 06:57:51;;;;;;;82.03;24.13;;;;;;;;;;7322121;19;20482;-43
2024/02/12 07:00:20;;;;;;;62.23;17.77;;;;;;;;;;7345913;19;20744;-41
2024/02/12 07:02:54;;;;;;;62.60;19.23;;;;;;;;;;7322321;19;20443;-43
2024/02/12 07:05:25;;;;;;;68.30;22.50;;;;;;;;;;7345693;19;20454;-47
2024/02/12 07:07:55;;;;;;;63.13;20.80;;;;;;;;;;7323423;19;20801;-44
2024/02/12 07:10:25;;;;;;;51.07;17.30;;;;;;;;;;7345467;19;20781;-42
2024/02/12 07:12:55;;;;;;;72.30;20.70;;;;;;;;;;7323072;19;20518;-44
2024/02/12 07:15:24;;;;;;;70.13;22.13;;;;;;;;;;7344643;19;20429;-45
2024/02/12 07:17:56;;;;;;;65.47;20.53;;;;;;;;;;7321712;19;20443;-43
2024/02/12 07:20:26;;;;;;;71.40;19.80;;;;;;;;;;7345070;19;20403;-44
2024/02/12 07:22:57;;;;;;;61.20;20.03;;;;;;;;;;7322209;19;20450;-49
2024/02/12 07:25:27;;;;;;;59.30;18.47;;;;;;;;;;7344286;19;20415;-44
2024/02/12 07:27:56;;;;;;;54.83;16.90;;;;;;;;;;7321551;19;20802;-47
2024/02/12 07:30:26;;;;;;;59.67;18.60;;;;;;;;;;7345267;19;20421;-43
2024/02/12 07:32:59;;;;;;;55.27;17.40;;;;;;;;;;7322579;19;20423;-43
2024/02/12 07:35:30;;;;;;;56.47;18.57;;;;;;;;;;7344551;19;20746;-43
2024/02/12 07:38:01;;;;;;;59.13;19.30;;;;;;;;;;7315831;19;20439;-43
2024/02/12 07:40:32;;;;;;;56.13;16.93;;;;;;;;;;7344407;19;20410;-45
2024/02/12 07:43:02;;;;;;;59.73;18.13;;;;;;;;;;7322063;19;20439;-45
2024/02/12 07:45:33;;;;;;;56.37;18.43;;;;;;;;;;7345054;19;20410;-42
2024/02/12 07:48:05;;;;;;;52.60;17.10;;;;;;;;;;7323065;19;20876;-45
2024/02/12 07:50:36;;;;;;;43.13;16.43;;;;;;;;;;7350125;19;20420;-42
2024/02/12 07:53:06;;;;;;;49.07;16.40;;;;;;;;;;7327225;19;20419;-42
2024/02/12 07:55:35;;;;;;;49.27;15.97;;;;;;;;;;7350890;19;20407;-48
2024/02/12 07:58:05;;;;;;;46.00;14.23;;;;;;;;;;7328166;19;20435;-44
2024/02/12 08:00:34;;;;;;;40.93;14.17;;;;;;;;;;7351377;19;20418;-43
2024/02/12 08:03:06;;;;;;;48.37;16.30;;;;;;;;;;7328541;19;20419;-42
2024/02/12 08:05:37;;;;;;;38.47;13.87;;;;;;;;;;7350269;19;20403;-43
2024/02/12 08:08:08;;;;;;;45.70;14.03;;;;;;;;;;7328560;19;20457;-43
2024/02/12 08:10:39;;;;;;;40.33;14.10;;;;;;;;;;7350751;19;20404;-48
2024/02/12 08:13:08;;;;;;;42.70;13.70;;;;;;;;;;7328485;19;20905;-41
2024/02/12 08:15:38;;;;;;;36.17;14.10;;;;;;;;;;7349377;19;20837;-45
2024/02/12 08:18:10;;;;;;;35.30;12.33;;;;;;;;;;7322906;19;20398;-44
2024/02/12 08:20:39;;;;;;;32.90;13.87;;;;;;;;;;7347565;19;20430;-45
2024/02/12 08:23:09;;;;;;;39.70;12.80;;;;;;;;;;7323949;19;22008;-49
2024/02/12 08:25:38;;;;;;;32.37;12.40;;;;;;;;;;7344041;19;20531;-46
2024/02/12 08:28:09;;;;;;;37.33;13.23;;;;;;;;;;7322770;19;20399;-45
2024/02/12 08:30:38;;;;;;;34.63;12.40;;;;;;;;;;7349792;19;20410;-44
2024/02/12 08:33:12;;;;;;;46.43;13.60;;;;;;;;;;7326724;19;20384;-49
2024/02/12 08:35:41;;;;;;;39.27;13.50;;;;;;;;;;7348945;19;20403;-44
2024/02/12 08:38:11;;;;;;;37.93;13.13;;;;;;;;;;7326111;19;20395;-45
2024/02/12 08:40:40;;;;;;;34.03;11.80;;;;;;;;;;7349844;19;20411;-49
2024/02/12 08:43:10;;;;;;;32.33;10.23;;;;;;;;;;7328695;19;20402;-47
2024/02/12 08:45:40;;;;;;;35.20;12.23;;;;;;;;;;7349056;19;20403;-45
2024/02/12 08:48:12;;;;;;;31.10;10.70;;;;;;;;;;7323318;19;20391;-46
2024/02/12 08:50:41;;;;;;;38.20;12.83;;;;;;;;;;7348660;19;20490;-45
2024/02/12 08:53:11;;;;;;;38.40;13.70;;;;;;;;;;7326226;19;20467;-46
2024/02/12 08:55:41;;;;;;;27.10;10.87;;;;;;;;;;7349329;19;20443;-46
2024/02/12 08:58:11;;;;;;;21.70;9.07;;;;;;;;;;7327679;19;20493;-43
2024/02/12 09:00:40;;;;;;;28.10;11.50;;;;;;;;;;7343071;19;20423;-45
2024/02/12 09:03:13;;;;;;;40.73;11.67;;;;;;;;;;7329061;19;20403;-44
2024/02/12 09:05:43;;;;;;;37.67;12.17;;;;;;;;;;7348254;19;20841;-45
2024/02/12 09:08:15;;;;;;;42.07;13.37;;;;;;;;;;7327094;19;20435;-44
2024/02/12 09:10:44;;;;;;;34.00;13.73;;;;;;;;;;7348240;19;20506;-47
2024/02/12 09:13:14;;;;;;;39.70;13.77;;;;;;;;;;7327306;19;20493;-44
2024/02/12 09:15:43;;;;;;;42.97;16.50;;;;;;;;;;7348485;19;20438;-44
2024/02/12 09:18:15;;;;;;;45.57;15.63;;;;;;;;;;7327310;19;20470;-48
2024/02/12 09:20:45;;;;;;;37.00;12.83;;;;;;;;;;7349921;19;20749;-43
2024/02/12 09:23:15;;;;;;;31.97;12.00;;;;;;;;;;7327881;19;20415;-43
2024/02/12 09:25:45;;;;;;;50.40;18.40;;;;;;;;;;7348170;19;20788;-46
2024/02/12 09:28:14;;;;;;;46.97;18.03;;;;;;;;;;7327212;19;20394;-46
2024/02/12 09:30:43;;;;;;;80.90;23.73;;;;;;;;;;7349095;19;20431;-43
2024/02/12 09:33:16;;;;;;;51.77;17.40;;;;;;;;;;7327505;19;20535;-44
2024/02/12 09:35:47;;;;;;;68.23;24.47;;;;;;;;;;7347881;19;20971;-47
2024/02/12 09:38:18;;;;;;;61.53;23.07;;;;;;;;;;7327181;19;20402;-43
2024/02/12 09:40:48;;;;;;;34.17;12.33;;;;;;;;;;7339590;19;20423;-43
2024/02/12 09:43:18;;;;;;;40.40;15.67;;;;;;;;;;7348341;19;20427;-42
2024/02/12 09:45:47;;;;;;;33.63;12.27;;;;;;;;;;7341478;19;20427;-41
2024/02/12 09:48:20;;;;;;;32.87;11.73;;;;;;;;;;7348559;19;20419;-46
2024/02/12 09:50:51;;;;;;;34.83;12.37;;;;;;;;;;7326300;19;20491;-41
2024/02/12 09:53:23;;;;;;;24.67;10.77;;;;;;;;;;7344318;19;20403;-49
2024/02/12 09:55:53;;;;;;;28.30;12.07;;;;;;;;;;7317353;19;20794;-49
2024/02/12 09:58:22;;;;;;;32.43;12.30;;;;;;;;;;7346350;19;20490;-46
2024/02/12 10:00:52;;;;;;;35.17;12.00;;;;;;;;;;7321844;19;20462;-45
2024/02/12 10:03:24;;;;;;;32.77;11.10;;;;;;;;;;7347199;19;20464;-47
2024/02/12 10:05:54;;;;;;;26.53;10.33;;;;;;;;;;7324084;19;20416;-50
2024/02/12 10:08:24;;;;;;;32.30;12.53;;;;;;;;;;7344731;19;20447;-41
2024/02/12 10:10:54;;;;;;;24.87;10.67;;;;;;;;;;7321302;19;20423;-43
2024/02/12 10:13:24;;;;;;;24.93;10.67;;;;;;;;;;7341729;19;20454;-40
2024/02/12 10:15:55;;;;;;;24.07;10.57;;;;;;;;;;7322828;19;20435;-49
2024/02/12 10:18:27;;;;;;;33.10;10.83;;;;;;;;;;7343399;19;20826;-43
2024/02/12 10:20:57;;;;;;;24.50;10.80;;;;;;;;;;7322389;19;20442;-43
2024/02/12 10:23:26;;;;;;;42.17;17.50;;;;;;;;;;7346357;19;20513;-46
2024/02/12 10:25:56;;;;;;;20.97;9.30;;;;;;;;;;7323352;19;20427;-42
2024/02/12 10:28:25;;;;;;;26.97;10.90;;;;;;;;;;7342476;19;20462;-43
2024/02/12 10:30:54;;;;;;;31.83;11.63;;;;;;;;;;7323292;19;20543;-43
2024/02/12 10:33:25;;;;;;;32.73;10.33;;;;;;;;;;7341898;19;20403;-42
2024/02/12 10:35:57;;;;;;;31.63;12.00;;;;;;;;;;7322291;19;20522;-42
2024/02/12 10:38:27;;;;;;;33.20;11.00;;;;;;;;;;7344031;19;20395;-43
2024/02/12 10:41:04;;;;;;;24.83;10.20;;;;;;;;;;7322498;19;20490;-46
2024/02/12 10:43:34;;;;;;;22.73;10.70;;;;;;;;;;7342774;19;20811;-44
2024/02/12 10:48:38;;;;;;;28.93;11.20;;;;;;;;;;7341029;19;20443;-48
2024/02/12 10:51:11;;;;;;;24.53;10.30;;;;;;;;;;7321147;19;20483;-49
2024/02/12 10:53:40;;;;;;;31.73;11.00;;;;;;;;;;7344608;19;20471;-48
2024/02/12 10:56:10;;;;;;;21.23;9.03;;;;;;;;;;7321657;19;20454;-48
2024/02/12 10:58:41;;;;;;;25.40;10.70;;;;;;;;;;7345922;19;20470;-47
2024/02/12 11:01:14;;;;;;;24.00;8.13;;;;;;;;;;7322662;19;20429;-46
2024/02/12 11:03:47;;;;;;;25.57;12.33;;;;;;;;;;7342584;19;20956;-46
2024/02/12 11:06:20;;;;;;;29.00;11.93;;;;;;;;;;7324192;19;20483;-47
2024/02/12 11:08:51;;;;;;;26.10;11.87;;;;;;;;;;7322079;19;20423;-49
2024/02/12 11:11:22;;;;;;;33.70;13.67;;;;;;;;;;7344816;19;20399;-50
2024/02/12 11:13:53;;;;;;;28.77;12.40;;;;;;;;;;7321039;19;20458;-48
2024/02/12 11:16:23;;;;;;;26.53;11.67;;;;;;;;;;7343001;19;20478;-46
2024/02/12 11:18:57;;;;;;;33.37;13.17;;;;;;;;;;7344567;19;20932;-47
2024/02/12 11:21:35;;;;;;;36.90;14.53;;;;;;;;;;7322454;19;20415;-48
2024/02/12 11:24:09;;;;;;;37.03;14.40;;;;;;;;;;7342611;19;20449;-47
2024/02/12 11:26:39;;;;;;;30.40;14.23;;;;;;;;;;7324262;19;20414;-48
2024/02/12 11:29:10;;;;;;;29.97;12.97;;;;;;;;;;7334029;19;20795;-49
2024/02/12 11:31:41;;;;;;;28.57;13.50;;;;;;;;;;7345114;19;20955;-48
2024/02/12 11:34:14;;;;;;;30.70;12.67;;;;;;;;;;7321042;19;20431;-48
2024/02/12 11:36:46;;;;;;;39.80;15.53;;;;;;;;;;7341489;19;20821;-47
2024/02/12 11:39:17;;;;;;;35.47;14.40;;;;;;;;;;7321499;19;20443;-47
2024/02/12 11:41:48;;;;;;;34.37;14.87;;;;;;;;;;7344824;19;20486;-48
2024/02/12 11:44:18;;;;;;;30.90;14.30;;;;;;;;;;7320811;19;20423;-48
2024/02/12 11:46:56;;;;;;;38.73;14.63;;;;;;;;;;7343553;19;20434;-46
2024/02/12 11:49:26;;;;;;;32.30;15.30;;;;;;;;;;7321615;19;20814;-50
2024/02/12 11:51:59;;;;;;;26.70;12.17;;;;;;;;;;7343015;19;20427;-48
2024/02/12 11:54:29;;;;;;;34.63;15.27;;;;;;;;;;7320322;19;22033;-48
2024/02/12 11:56:58;;;;;;;29.47;14.30;;;;;;;;;;7341281;19;20520;-49
2024/02/12 11:59:28;;;;;;;35.90;14.93;;;;;;;;;;7320806;19;20439;-50
2024/02/12 12:01:58;;;;;;;30.83;12.97;;;;;;;;;;7342012;19;20427;-47
2024/02/12 12:04:27;;;;;;;40.37;14.27;;;;;;;;;;7312499;19;20491;-49
2024/02/12 12:06:59;;;;;;;32.33;14.43;;;;;;;;;;7333866;19;20426;-48
2024/02/12 12:09:29;;;;;;;35.70;14.70;;;;;;;;;;7316839;19;20385;-47
2024/02/12 12:11:59;;;;;;;40.60;15.27;;;;;;;;;;7340023;19;20423;-49
2024/02/12 12:14:29;;;;;;;39.87;13.73;;;;;;;;;;7318046;19;20459;-48
2024/02/12 12:16:59;;;;;;;40.40;16.53;;;;;;;;;;7340344;19;20455;-51
2024/02/12 12:19:48;;;;;;;31.33;14.43;;;;;;;;;;7322887;19;20970;-49
2024/02/12 12:22:21;;;;;;;32.93;15.03;;;;;;;;;;7319318;19;20480;-49
2024/02/12 12:24:51;;;;;;;40.20;15.90;;;;;;;;;;7343039;19;20531;-49
2024/02/12 12:27:27;;;;;;;30.20;12.47;;;;;;;;;;7319643;19;20451;-49
2024/02/12 12:29:57;;;;;;;37.90;16.80;;;;;;;;;;7343921;19;20899;-47
2024/02/12 12:32:28;;;;;;;35.93;15.47;;;;;;;;;;7313243;19;20856;-47
2024/02/12 12:34:58;;;;;;;41.57;15.60;;;;;;;;;;7334396;19;20447;-47
2024/02/12 12:37:31;;;;;;;60.43;23.83;;;;;;;;;;7320097;19;20431;-45
2024/02/12 12:40:00;;;;;;;73.30;24.03;;;;;;;;;;7349139;19;20418;-47
2024/02/12 12:42:30;;;;;;;70.67;30.20;;;;;;;;;;7319157;19;20396;-47
2024/02/12 12:45:00;;;;;;;58.37;22.70;;;;;;;;;;7346215;19;20419;-46
2024/02/12 12:47:29;;;;;;;44.47;16.90;;;;;;;;;;7314180;19;20877;-50
2024/02/12 12:49:59;;;;;;;51.30;19.83;;;;;;;;;;7348629;19;20429;-50
2024/02/12 12:52:32;;;;;;;50.47;17.83;;;;;;;;;;7326790;19;20431;-48
2024/02/12 12:55:01;;;;;;;52.00;19.67;;;;;;;;;;7349264;19;20427;-48
2024/02/12 12:57:30;;;;;;;50.80;19.07;;;;;;;;;;7323918;19;20731;-49
2024/02/12 13:00:00;;;;;;;42.60;17.37;;;;;;;;;;7349474;19;20427;-48
2024/02/12 13:02:31;;;;;;;41.73;17.50;;;;;;;;;;7324906;19;20486;-47
2024/02/12 13:05:02;;;;;;;43.17;15.87;;;;;;;;;;7348071;19;20963;-50
2024/02/12 13:07:34;;;;;;;37.70;16.43;;;;;;;;;;7326236;19;20416;-51
2024/02/12 13:10:06;;;;;;;47.20;17.67;;;;;;;;;;7349508;19;20494;-47
2024/02/12 13:12:37;;;;;;;41.80;17.00;;;;;;;;;;7327585;19;20399;-49
2024/02/12 13:15:09;;;;;;;51.57;17.87;;;;;;;;;;7348977;19;21099;-48
2024/02/12 13:17:41;;;;;;;51.60;20.30;;;;;;;;;;7326179;19;21346;-47
2024/02/12 13:20:21;;;;;;;69.93;26.53;;;;;;;;;;7329686;19;20444;-47
2024/02/12 13:22:58;;;;;;;40.27;17.40;;;;;;;;;;7349605;19;20427;-48
2024/02/12 13:25:29;;;;;;;49.17;21.03;;;;;;;;;;7327084;19;20455;-46
2024/02/12 13:27:59;;;;;;;40.57;16.80;;;;;;;;;;7347109;19;20449;-48
2024/02/12 13:30:29;;;;;;;35.00;15.80;;;;;;;;;;7325680;19;21243;-49
2024/02/12 13:33:00;;;;;;;33.67;16.33;;;;;;;;;;7347220;19;20499;-47
2024/02/12 13:35:30;;;;;;;33.20;14.77;;;;;;;;;;7323574;19;20373;-46
2024/02/12 13:38:03;;;;;;;28.57;13.50;;;;;;;;;;7347763;19;20447;-48
2024/02/12 13:40:32;;;;;;;33.70;14.23;;;;;;;;;;7327084;19;20409;-47
2024/02/12 13:43:03;;;;;;;40.77;15.70;;;;;;;;;;7346879;19;20436;-48
2024/02/12 13:45:38;;;;;;;36.03;14.93;;;;;;;;;;7326340;19;20409;-48
2024/02/12 13:48:08;;;;;;;50.73;17.90;;;;;;;;;;7345317;19;20438;-46
2024/02/12 13:50:39;;;;;;;33.87;13.97;;;;;;;;;;7327558;19;20735;-46
2024/02/12 13:53:11;;;;;;;32.30;14.97;;;;;;;;;;7347763;19;20423;-46
2024/02/12 13:55:41;;;;;;;33.77;14.23;;;;;;;;;;7326576;19;20424;-48
2024/02/12 13:58:11;;;;;;;31.87;13.00;;;;;;;;;;7328040;19;20466;-48
2024/02/12 14:00:43;;;;;;;31.53;13.23;;;;;;;;;;7348206;19;20467;-49
2024/02/12 14:03:32;;;;;;;53.57;21.50;;;;;;;;;;7323970;19;20399;-48
2024/02/12 14:06:03;;;;;;;24.07;11.87;;;;;;;;;;7347609;19;20511;-47
2024/02/12 14:08:37;;;;;;;24.50;11.67;;;;;;;;;;7324803;19;20425;-46
2024/02/12 14:11:06;;;;;;;32.57;14.73;;;;;;;;;;7347836;19;20433;-49
2024/02/12 14:13:36;;;;;;;32.73;12.83;;;;;;;;;;7325334;19;20910;-47
2024/02/12 14:16:07;;;;;;;34.10;11.93;;;;;;;;;;7346640;19;20427;-48
2024/02/12 14:18:41;;;;;;;22.20;11.17;;;;;;;;;;7324717;19;20958;-47
2024/02/12 14:21:12;;;;;;;24.30;11.00;;;;;;;;;;7324887;19;20431;-49
2024/02/12 14:23:44;;;;;;;29.80;11.47;;;;;;;;;;7343349;19;20395;-47
2024/02/12 14:26:16;;;;;;;31.90;11.27;;;;;;;;;;7323690;19;20491;-49
2024/02/12 14:28:46;;;;;;;21.63;10.70;;;;;;;;;;7346754;19;20481;-47
2024/02/12 14:31:16;;;;;;;19.90;9.50;;;;;;;;;;7324019;19;20439;-49
2024/02/12 14:33:48;;;;;;;25.40;10.50;;;;;;;;;;7342865;19;20431;-47
2024/02/12 14:36:18;;;;;;;24.40;10.00;;;;;;;;;;7324451;19;20436;-48
2024/02/12 14:38:51;;;;;;;22.03;10.83;;;;;;;;;;7347368;19;20415;-48
2024/02/12 14:41:20;;;;;;;27.43;9.90;;;;;;;;;;7323458;19;20419;-52
2024/02/12 14:43:50;;;;;;;22.77;8.17;;;;;;;;;;7345778;19;20830;-50
2024/02/12 14:46:19;;;;;;;22.63;8.73;;;;;;;;;;7323577;19;20431;-49
2024/02/12 14:48:49;;;;;;;19.87;8.77;;;;;;;;;;7347590;19;20761;-49
2024/02/12 14:51:19;;;;;;;22.10;8.60;;;;;;;;;;7324244;19;20931;-47
2024/02/12 14:53:51;;;;;;;20.53;8.03;;;;;;;;;;7346735;19;20395;-47
2024/02/12 14:56:21;;;;;;;30.10;8.90;;;;;;;;;;7322726;19;20423;-50